Time;durP1;ratioP1;P1;durP2;ratioP2;P2;SDS_P1;SDS_P2;PMS_P1;PMS_P2;Temp;Humidity;BMP_temperature;BMP_pressure;BME280_temperature;BME280_humidity;BME280_pressure;Samples;Min_cycle;Max_cycle;Signal;HPM_P1;HPM_P2
2023/12/26 00:01:19;;;;;;;3.30;1.02;;;9.20;67.10;;;;;;4858117;29;115630;-80
2023/12/26 00:03:49;;;;;;;2.75;1.17;;;9.20;67.10;;;;;;4848992;29;114281;-81
2023/12/26 00:06:21;;;;;;;2.40;1.20;;;9.20;67.10;;;;;;4836852;29;114273;-81
2023/12/26 00:08:48;;;;;;;1.75;1.17;;;9.20;67.00;;;;;;4842603;29;115246;-80
2023/12/26 00:11:56;;;;;;;2.58;1.33;;;9.20;67.00;;;;;;4834986;29;114671;-81
2023/12/26 00:14:38;;;;;;;2.60;1.20;;;9.30;66.90;;;;;;4831589;29;114576;-81
2023/12/26 00:17:06;;;;;;;2.90;1.30;;;9.20;67.10;;;;;;4820211;29;114869;-82
2023/12/26 00:19:33;;;;;;;1.98;0.90;;;9.20;67.00;;;;;;4819959;29;115448;-81
2023/12/26 00:22:01;;;;;;;2.35;1.25;;;9.20;67.00;;;;;;4820411;29;114807;-81
2023/12/26 00:24:31;;;;;;;3.00;1.10;;;9.20;67.10;;;;;;4852706;29;114522;-81
2023/12/26 00:26:58;;;;;;;2.75;1.05;;;9.20;67.10;;;;;;4836339;29;114339;-82
2023/12/26 00:34:31;;;;;;;2.47;1.23;;;9.30;67.00;;;;;;4816316;29;116078;-80
2023/12/26 00:38:14;;;;;;;1.88;0.90;;;9.20;67.30;;;;;;4850669;29;114484;-81
2023/12/26 00:46:55;;;;;;;2.22;1.00;;;9.20;67.30;;;;;;4830438;29;115512;-82
2023/12/26 00:56:08;;;;;;;1.90;1.00;;;9.20;67.30;;;;;;4764097;29;114756;-81
2023/12/26 01:35:17;;;;;;;2.92;1.02;;;9.00;67.50;;;;;;4808291;29;114473;-81
2023/12/26 01:37:48;;;;;;;1.75;0.93;;;9.10;67.60;;;;;;4793803;29;114464;-80
2023/12/26 02:01:48;;;;;;;2.08;1.05;;;9.10;67.70;;;;;;4812532;29;114680;-81
2023/12/26 02:04:16;;;;;;;2.67;1.00;;;9.10;67.60;;;;;;4792290;29;116640;-82
2023/12/26 02:08:19;;;;;;;2.20;1.10;;;9.10;67.60;;;;;;4797482;29;114628;-82
2023/12/26 02:10:56;;;;;;;2.00;1.00;;;9.20;67.40;;;;;;4793416;29;114706;-82
2023/12/26 02:19:03;;;;;;;1.55;0.80;;;9.20;67.30;;;;;;4811494;29;116975;-82
2023/12/26 02:21:32;;;;;;;2.60;1.08;;;9.20;67.50;;;;;;4796592;29;115116;-81
2023/12/26 02:27:03;;;;;;;2.15;1.00;;;9.20;67.30;;;;;;4815880;29;114459;-81
2023/12/26 02:29:32;;;;;;;2.10;1.13;;;9.20;67.30;;;;;;4783418;29;115177;-80
2023/12/26 02:32:00;;;;;;;2.40;1.10;;;9.20;67.20;;;;;;4769093;29;117071;-80
2023/12/26 02:34:29;;;;;;;1.52;0.90;;;9.20;67.20;;;;;;4785031;29;114510;-81
2023/12/26 02:49:45;;;;;;;2.13;1.10;;;9.20;67.40;;;;;;4796490;29;115801;-80
2023/12/26 03:40:53;;;;;;;1.38;0.90;;;9.00;67.70;;;;;;4797205;29;114872;-81
2023/12/26 03:44:59;;;;;;;1.92;0.98;;;9.00;67.70;;;;;;4780945;29;114271;-81
2023/12/26 03:54:03;;;;;;;3.17;1.58;;;9.10;67.40;;;;;;4786434;29;114573;-80
2023/12/26 03:56:33;;;;;;;5.07;1.73;;;9.00;67.30;;;;;;4762581;29;114517;-81
2023/12/26 03:59:02;;;;;;;4.05;2.00;;;9.00;67.20;;;;;;4761431;29;115390;-82
2023/12/26 04:01:29;;;;;;;3.25;1.60;;;9.00;67.20;;;;;;4760676;29;115419;-82
2023/12/26 04:03:57;;;;;;;3.30;1.60;;;8.90;67.10;;;;;;4776922;29;114638;-82
2023/12/26 04:06:24;;;;;;;3.50;1.50;;;8.90;67.10;;;;;;4761366;29;114374;-82
2023/12/26 04:08:52;;;;;;;3.10;1.58;;;8.90;67.20;;;;;;4775759;29;115138;-81
2023/12/26 04:11:20;;;;;;;2.90;1.67;;;8.90;67.10;;;;;;4760613;29;118136;-82
2023/12/26 04:13:47;;;;;;;2.78;1.48;;;8.80;67.10;;;;;;4776634;29;114514;-81
2023/12/26 04:16:14;;;;;;;3.10;1.50;;;8.80;67.10;;;;;;4775915;29;114802;-81
2023/12/26 04:18:42;;;;;;;2.55;1.27;;;8.70;67.20;;;;;;4759383;29;116391;-81
2023/12/26 04:21:10;;;;;;;2.72;1.42;;;8.70;67.20;;;;;;4775702;29;114730;-81
2023/12/26 04:23:38;;;;;;;2.92;1.40;;;8.70;67.30;;;;;;4776163;29;114508;-82
2023/12/26 04:26:06;;;;;;;3.67;1.48;;;8.70;67.40;;;;;;4776180;29;114791;-82
2023/12/26 04:28:34;;;;;;;3.58;1.50;;;8.70;67.40;;;;;;4760099;29;118771;-82
2023/12/26 04:31:03;;;;;;;3.55;1.60;;;8.70;67.30;;;;;;4775421;29;114754;-81
2023/12/26 04:33:31;;;;;;;4.70;1.55;;;8.70;67.40;;;;;;4776221;29;114869;-81
2023/12/26 04:35:59;;;;;;;3.78;1.83;;;8.70;67.40;;;;;;4776472;29;114359;-81
2023/12/26 04:39:37;;;;;;;6.00;2.10;;;8.70;67.40;;;;;;4759952;29;115047;-81
2023/12/26 04:42:08;;;;;;;2.17;1.02;;;8.70;67.50;;;;;;4759694;29;114591;-82
2023/12/26 04:44:36;;;;;;;1.90;0.90;;;8.70;67.90;;;;;;4775381;29;114533;-82
2023/12/26 04:47:03;;;;;;;2.72;0.90;;;8.70;68.00;;;;;;4775143;29;114343;-83
2023/12/26 04:49:32;;;;;;;2.92;0.95;;;8.80;68.00;;;;;;4775206;29;117574;-81
2023/12/26 04:52:38;;;;;;;1.70;0.77;;;8.90;68.00;;;;;;4759794;29;114657;-80
2023/12/26 04:55:09;;;;;;;2.50;0.82;;;9.00;67.80;;;;;;4760251;29;114514;-80
2023/12/26 04:57:37;;;;;;;2.03;0.80;;;9.00;68.00;;;;;;4760709;29;114328;-81
2023/12/26 05:00:06;;;;;;;1.05;0.60;;;9.10;68.10;;;;;;4779497;29;115219;-81
2023/12/26 05:02:47;;;;;;;3.40;0.85;;;9.10;68.20;;;;;;4777912;29;114679;-81
2023/12/26 05:05:25;;;;;;;1.73;0.70;;;9.20;68.20;;;;;;4793931;29;114686;-80
2023/12/26 05:08:57;;;;;;;1.20;0.55;;;9.20;68.30;;;;;;4778219;29;114618;-81
2023/12/26 05:11:25;;;;;;;1.67;0.70;;;9.20;68.20;;;;;;4783161;29;115746;-80
2023/12/26 05:14:25;;;;;;;1.10;0.60;;;9.20;68.50;;;;;;4777787;29;114765;-81
2023/12/26 05:16:52;;;;;;;1.38;0.68;;;9.30;68.30;;;;;;4793668;29;114354;-81
2023/12/26 05:20:31;;;;;;;0.95;0.60;;;9.20;68.40;;;;;;4778917;29;114425;-81
2023/12/26 05:22:58;;;;;;;1.27;0.50;;;9.30;68.30;;;;;;4792593;29;115267;-81
2023/12/26 05:25:27;;;;;;;1.25;0.52;;;9.30;68.40;;;;;;4792932;29;115341;-81
2023/12/26 05:27:56;;;;;;;0.75;0.50;;;9.40;68.50;;;;;;4795833;29;114435;-80
2023/12/26 05:30:26;;;;;;;0.73;0.50;;;9.40;68.40;;;;;;4795188;29;114522;-81
2023/12/26 05:33:26;;;;;;;0.40;0.30;;;9.40;68.40;;;;;;4792826;29;115118;-81
2023/12/26 05:36:14;;;;;;;0.70;0.50;;;9.50;68.20;;;;;;4737942;29;115197;-80
2023/12/26 05:39:17;;;;;;;0.80;0.38;;;9.50;68.30;;;;;;4736088;29;114447;-81
2023/12/26 05:41:47;;;;;;;1.05;0.50;;;9.50;68.20;;;;;;4744980;29;114470;-81
2023/12/26 05:44:16;;;;;;;0.77;0.30;;;9.50;68.30;;;;;;4723028;29;117577;-80
2023/12/26 05:46:45;;;;;;;0.77;0.40;;;9.50;68.30;;;;;;4738402;29;114756;-80
2023/12/26 05:49:13;;;;;;;0.77;0.50;;;9.50;68.30;;;;;;4724779;29;114583;-81
2023/12/26 05:51:40;;;;;;;1.05;0.50;;;9.60;68.30;;;;;;4739448;29;114412;-81
2023/12/26 05:54:43;;;;;;;0.85;0.50;;;9.60;68.20;;;;;;4723044;29;115133;-81
2023/12/26 05:58:14;;;;;;;0.50;0.47;;;9.70;68.00;;;;;;4756931;29;114694;-81
2023/12/26 06:01:31;;;;;;;0.82;0.43;;;9.70;68.00;;;;;;4778273;29;114656;-81
2023/12/26 06:05:13;;;;;;;1.38;0.57;;;9.70;68.00;;;;;;4774355;29;114272;-81
2023/12/26 06:07:40;;;;;;;1.15;0.70;;;9.70;68.00;;;;;;4773251;29;115936;-81
2023/12/26 06:10:14;;;;;;;3.55;1.30;;;9.60;68.10;;;;;;4773918;29;115021;-81
2023/12/26 06:12:42;;;;;;;0.93;0.50;;;9.70;68.00;;;;;;4774690;29;114417;-81
2023/12/26 06:15:47;;;;;;;0.80;0.55;;;9.70;67.90;;;;;;4761742;29;114641;-81
2023/12/26 06:18:17;;;;;;;0.43;0.30;;;9.70;67.60;;;;;;4776659;29;115847;-81
2023/12/26 06:20:45;;;;;;;1.92;1.00;;;9.70;67.70;;;;;;4776605;29;116325;-80
2023/12/26 06:23:12;;;;;;;2.10;0.70;;;9.70;67.70;;;;;;4777568;29;114348;-81
2023/12/26 06:25:42;;;;;;;1.20;0.70;;;9.70;67.60;;;;;;4778067;29;114634;-81
2023/12/26 06:28:12;;;;;;;1.42;0.73;;;9.80;67.50;;;;;;4791916;29;115171;-80
2023/12/26 06:30:39;;;;;;;0.90;0.60;;;9.80;67.40;;;;;;4776692;29;114879;-81
2023/12/26 06:33:07;;;;;;;0.93;0.50;;;9.80;67.40;;;;;;4777050;29;114866;-81
2023/12/26 06:35:37;;;;;;;1.90;0.60;;;9.80;67.30;;;;;;4793198;29;114418;-81
2023/12/26 06:38:12;;;;;;;0.98;0.60;;;9.80;67.20;;;;;;4776271;29;115326;-80
2023/12/26 06:40:40;;;;;;;1.20;0.65;;;9.80;67.10;;;;;;4761581;29;116189;-81
2023/12/26 06:43:14;;;;;;;1.35;0.73;;;9.80;67.20;;;;;;4777031;29;114510;-81
2023/12/26 06:45:41;;;;;;;1.13;0.60;;;9.90;67.10;;;;;;4792767;29;114658;-81
2023/12/26 06:48:09;;;;;;;0.73;0.50;;;9.90;67.10;;;;;;4776451;29;116547;-82
2023/12/26 06:50:40;;;;;;;1.23;0.50;;;9.90;67.00;;;;;;4792107;29;115426;-81
2023/12/26 06:53:08;;;;;;;1.10;0.60;;;9.90;67.00;;;;;;4777434;29;114635;-81
2023/12/26 06:55:36;;;;;;;1.88;0.70;;;9.90;67.00;;;;;;4775271;29;114622;-81
2023/12/26 06:58:04;;;;;;;1.70;0.70;;;9.90;66.90;;;;;;4809240;29;116433;-81
2023/12/26 07:00:33;;;;;;;1.40;0.68;;;9.90;66.80;;;;;;4794824;29;114854;-81
2023/12/26 07:03:01;;;;;;;1.90;1.10;;;9.90;66.80;;;;;;4810674;29;114600;-81
2023/12/26 07:05:29;;;;;;;1.73;0.80;;;10.00;66.70;;;;;;4779925;29;114360;-81
2023/12/26 07:07:57;;;;;;;0.90;0.63;;;10.00;66.70;;;;;;4794477;29;116385;-81
2023/12/26 07:10:25;;;;;;;1.73;0.70;;;10.00;66.50;;;;;;4811812;29;114683;-80
2023/12/26 07:12:53;;;;;;;1.15;0.60;;;10.10;66.50;;;;;;4865123;28;114597;-81
2023/12/26 07:15:20;;;;;;;1.50;0.65;;;10.10;66.50;;;;;;4873148;28;114441;-81
2023/12/26 07:17:48;;;;;;;1.23;0.60;;;10.10;66.30;;;;;;4871777;28;115509;-81
2023/12/26 07:20:15;;;;;;;1.45;0.80;;;10.20;66.30;;;;;;4838939;28;115943;-81
2023/12/26 07:22:49;;;;;;;1.67;0.85;;;10.20;66.20;;;;;;4871771;28;114439;-80
2023/12/26 07:25:17;;;;;;;2.08;0.80;;;10.10;66.10;;;;;;4872322;28;114541;-81
2023/12/26 07:27:44;;;;;;;2.63;0.93;;;10.20;65.90;;;;;;4871624;28;115103;-81
2023/12/26 07:30:11;;;;;;;1.73;0.80;;;10.20;65.80;;;;;;4871479;28;114655;-81
2023/12/26 07:32:40;;;;;;;2.50;0.90;;;10.20;65.70;;;;;;4855364;28;114736;-81
2023/12/26 07:35:08;;;;;;;1.73;0.88;;;10.20;65.60;;;;;;4872038;28;114429;-81
2023/12/26 07:37:42;;;;;;;1.50;0.73;;;10.20;65.50;;;;;;4871309;28;115578;-80
2023/12/26 07:40:11;;;;;;;2.05;0.80;;;10.20;65.20;;;;;;4850584;28;115663;-81
2023/12/26 07:43:17;;;;;;;1.42;0.77;;;10.20;65.20;;;;;;4868533;28;114240;-81
2023/12/26 07:45:46;;;;;;;1.20;0.70;;;10.30;65.00;;;;;;4857618;28;114576;-80
2023/12/26 07:48:14;;;;;;;1.38;0.70;;;10.20;65.10;;;;;;4871431;28;115258;-81
2023/12/26 07:51:12;;;;;;;1.92;0.80;;;10.20;65.00;;;;;;4854101;28;115165;-81
2023/12/26 07:53:55;;;;;;;2.08;0.90;;;10.30;64.90;;;;;;4855280;28;114313;-81
2023/12/26 07:56:25;;;;;;;1.60;0.73;;;10.30;64.80;;;;;;4832564;29;114529;-82
2023/12/26 07:58:54;;;;;;;1.55;0.70;;;10.30;64.60;;;;;;4833342;29;116356;-82
2023/12/26 08:01:25;;;;;;;1.65;0.73;;;10.20;64.40;;;;;;4833018;29;116038;-82
2023/12/26 08:03:53;;;;;;;1.67;0.80;;;10.30;64.30;;;;;;4833846;29;114468;-81
2023/12/26 08:06:25;;;;;;;1.80;0.80;;;10.20;64.20;;;;;;4802342;29;114563;-82
2023/12/26 08:08:53;;;;;;;1.92;0.90;;;10.30;64.00;;;;;;4832924;29;115290;-81
2023/12/26 08:11:21;;;;;;;1.70;1.00;;;10.30;64.00;;;;;;4816238;29;114786;-80
2023/12/26 08:13:48;;;;;;;2.97;0.77;;;10.30;63.80;;;;;;4832170;29;114936;-81
2023/12/26 08:16:16;;;;;;;1.58;0.90;;;10.30;63.70;;;;;;4833876;29;114325;-80
2023/12/26 08:18:43;;;;;;;2.35;1.10;;;10.30;63.70;;;;;;4816676;29;115247;-80
2023/12/26 08:21:43;;;;;;;1.65;0.90;;;10.30;63.60;;;;;;4816313;29;114878;-81
2023/12/26 08:24:10;;;;;;;1.98;1.10;;;10.40;63.30;;;;;;4833126;29;114324;-81
2023/12/26 08:26:44;;;;;;;2.22;0.90;;;10.30;63.20;;;;;;4817431;29;114424;-81
2023/12/26 08:29:12;;;;;;;2.80;1.13;;;10.30;63.20;;;;;;4815914;29;118102;-81
2023/12/26 08:31:39;;;;;;;2.53;0.98;;;10.30;63.20;;;;;;4816390;29;115299;-82
2023/12/26 08:34:38;;;;;;;2.20;1.10;;;10.30;63.00;;;;;;4816926;29;114404;-82
2023/12/26 08:37:05;;;;;;;1.58;0.80;;;10.40;63.00;;;;;;4833175;29;114688;-82
2023/12/26 08:39:33;;;;;;;1.92;0.90;;;10.20;63.20;;;;;;4830411;29;116595;-82
2023/12/26 08:42:00;;;;;;;2.65;1.00;;;10.30;63.10;;;;;;4815893;29;114670;-82
2023/12/26 08:44:29;;;;;;;3.67;1.00;;;10.30;63.10;;;;;;4832252;29;114374;-81
2023/12/26 08:47:00;;;;;;;1.38;0.80;;;10.20;63.20;;;;;;4833474;29;114205;-82
2023/12/26 08:49:28;;;;;;;2.08;0.73;;;10.30;63.30;;;;;;4800789;29;115587;-82
2023/12/26 08:51:56;;;;;;;2.28;1.13;;;10.30;63.30;;;;;;4832313;29;115909;-81
2023/12/26 08:54:23;;;;;;;2.58;1.20;;;10.30;63.20;;;;;;4839273;29;114944;-82
2023/12/26 08:56:50;;;;;;;1.63;0.90;;;10.30;63.10;;;;;;4838632;29;114302;-81
2023/12/26 08:59:23;;;;;;;2.20;1.00;;;10.30;63.10;;;;;;4851653;29;115216;-82
2023/12/26 09:02:00;;;;;;;1.90;1.00;;;10.30;63.10;;;;;;4835664;29;115766;-82
2023/12/26 09:04:29;;;;;;;3.40;1.27;;;10.30;63.20;;;;;;4852141;28;114426;-81
2023/12/26 09:06:57;;;;;;;3.00;1.15;;;10.30;63.10;;;;;;4870623;28;114235;-82
2023/12/26 09:09:26;;;;;;;2.80;1.13;;;10.40;63.00;;;;;;4869436;28;115712;-81
2023/12/26 09:11:55;;;;;;;2.63;1.20;;;10.30;62.70;;;;;;4837301;28;115981;-81
2023/12/26 09:14:23;;;;;;;2.20;1.13;;;10.40;62.60;;;;;;4870788;28;114225;-82
2023/12/26 09:16:50;;;;;;;2.03;1.02;;;10.40;62.50;;;;;;4870832;28;114335;-82
2023/12/26 09:19:17;;;;;;;2.80;1.30;;;10.40;62.50;;;;;;4822093;28;115803;-82
2023/12/26 09:21:46;;;;;;;2.38;1.20;;;10.40;62.40;;;;;;4853215;28;118131;-82
2023/12/26 09:24:16;;;;;;;2.55;1.30;;;10.40;62.10;;;;;;4871007;28;114380;-82
2023/12/26 09:26:44;;;;;;;3.42;1.50;;;10.50;62.00;;;;;;4871022;28;114360;-81
2023/12/26 09:29:14;;;;;;;2.80;1.33;;;10.50;61.90;;;;;;4837565;28;115156;-81
2023/12/26 09:31:42;;;;;;;2.15;1.23;;;10.50;61.60;;;;;;4853644;28;115215;-82
2023/12/26 09:34:11;;;;;;;2.55;1.20;;;10.50;61.30;;;;;;4870766;28;114452;-81
2023/12/26 09:36:38;;;;;;;2.08;1.15;;;10.40;61.40;;;;;;4854797;28;114821;-82
2023/12/26 09:39:14;;;;;;;2.80;1.25;;;10.50;61.40;;;;;;4841621;28;118053;-79
2023/12/26 09:41:43;;;;;;;3.15;2.10;;;10.50;61.10;;;;;;4859618;28;114371;-81
2023/12/26 09:44:20;;;;;;;3.15;1.48;;;10.40;61.30;;;;;;4855444;28;114569;-81
2023/12/26 09:46:51;;;;;;;3.65;1.75;;;10.50;61.20;;;;;;4825291;28;114502;-82
2023/12/26 09:49:19;;;;;;;3.00;1.50;;;10.40;61.20;;;;;;4869979;28;115101;-81
2023/12/26 09:51:49;;;;;;;3.10;1.48;;;10.40;61.00;;;;;;4853230;28;115872;-82
2023/12/26 09:54:17;;;;;;;3.70;1.50;;;10.40;60.80;;;;;;4838112;28;114632;-82
2023/12/26 09:56:45;;;;;;;4.28;1.30;;;10.40;60.80;;;;;;4869587;28;114543;-81
2023/12/26 09:59:13;;;;;;;2.50;1.20;;;10.40;60.70;;;;;;4869808;28;115542;-81
2023/12/26 10:01:42;;;;;;;2.50;1.13;;;10.40;60.50;;;;;;4836102;28;116989;-81
2023/12/26 10:04:10;;;;;;;2.03;1.20;;;10.40;60.40;;;;;;4870312;28;114375;-81
2023/12/26 10:06:37;;;;;;;2.70;1.10;;;10.40;60.60;;;;;;4821717;28;114595;-82
2023/12/26 10:09:05;;;;;;;4.82;1.73;;;10.40;60.40;;;;;;4852524;28;115193;-80
2023/12/26 10:11:32;;;;;;;3.53;1.50;;;10.40;60.40;;;;;;4852958;28;114665;-81
2023/12/26 10:14:04;;;;;;;3.03;1.25;;;10.30;60.50;;;;;;4837531;28;114329;-80
2023/12/26 10:16:31;;;;;;;3.42;1.55;;;10.30;60.40;;;;;;4837406;28;114709;-81
2023/12/26 10:19:01;;;;;;;3.65;1.52;;;10.30;60.40;;;;;;4820702;28;117006;-81
2023/12/26 10:21:29;;;;;;;2.67;1.60;;;10.30;60.40;;;;;;4821781;28;115180;-81
2023/12/26 10:23:57;;;;;;;4.85;1.65;;;10.30;60.30;;;;;;4837552;28;114590;-81
2023/12/26 10:26:24;;;;;;;3.95;1.65;;;10.30;60.40;;;;;;4852995;28;114681;-81
2023/12/26 10:29:24;;;;;;;4.15;1.90;;;10.20;60.40;;;;;;4821142;28;115752;-81
2023/12/26 10:31:51;;;;;;;3.35;1.50;;;10.30;60.40;;;;;;4832842;28;115490;-81
2023/12/26 10:34:29;;;;;;;2.50;1.38;;;10.20;60.60;;;;;;4854078;28;114391;-82
2023/12/26 10:36:58;;;;;;;3.00;1.33;;;10.30;60.30;;;;;;4855171;28;114562;-81
2023/12/26 10:39:27;;;;;;;3.15;1.20;;;10.20;60.40;;;;;;4862679;28;115364;-80
2023/12/26 10:43:02;;;;;;;3.97;2.20;;;10.20;60.50;;;;;;4821984;28;115543;-81
2023/12/26 10:45:42;;;;;;;2.70;1.38;;;10.30;60.40;;;;;;4837202;29;114505;-82
2023/12/26 10:48:14;;;;;;;2.85;1.35;;;10.20;60.70;;;;;;4838847;29;114699;-82
2023/12/26 10:50:42;;;;;;;2.97;1.33;;;10.20;60.50;;;;;;4836584;29;115265;-80
2023/12/26 10:53:21;;;;;;;3.60;1.50;;;10.20;60.50;;;;;;4870193;28;115373;-81
2023/12/26 10:55:48;;;;;;;4.28;1.67;;;10.20;60.40;;;;;;4840758;28;114354;-81
2023/12/26 10:58:29;;;;;;;3.17;1.60;;;10.20;60.40;;;;;;4856043;28;114400;-82
2023/12/26 11:01:01;;;;;;;3.85;1.67;;;10.20;60.30;;;;;;4854900;28;115112;-82
2023/12/26 11:03:31;;;;;;;3.17;1.70;;;10.20;60.40;;;;;;4841184;28;114583;-81
2023/12/26 11:06:02;;;;;;;2.45;1.45;;;10.20;60.50;;;;;;4855734;28;114332;-82
2023/12/26 11:08:32;;;;;;;3.03;1.50;;;10.20;60.40;;;;;;4872541;28;114424;-81
2023/12/26 11:11:41;;;;;;;3.50;1.45;;;10.20;60.40;;;;;;4838398;28;115481;-81
2023/12/26 11:15:15;;;;;;;3.22;1.70;;;10.30;60.40;;;;;;4836061;29;115227;-81
2023/12/26 11:17:43;;;;;;;2.25;1.10;;;10.30;60.40;;;;;;4855736;28;114561;-82
2023/12/26 11:20:13;;;;;;;2.20;1.20;;;10.20;60.40;;;;;;4840907;28;114416;-80
2023/12/26 11:22:40;;;;;;;2.45;1.30;;;10.30;60.20;;;;;;4854758;28;115154;-81
2023/12/26 11:25:08;;;;;;;2.83;1.10;;;10.30;60.00;;;;;;4839364;28;114672;-80
2023/12/26 11:28:14;;;;;;;3.67;1.40;;;10.30;59.90;;;;;;4825732;28;114540;-80
2023/12/26 11:30:47;;;;;;;2.95;1.17;;;10.40;60.00;;;;;;4825545;28;114528;-81
2023/12/26 11:33:18;;;;;;;2.45;1.20;;;10.30;59.90;;;;;;4856969;28;114426;-81
2023/12/26 11:35:52;;;;;;;2.45;1.10;;;10.30;59.60;;;;;;4855454;28;114606;-83
2023/12/26 11:38:20;;;;;;;3.88;1.42;;;10.30;59.40;;;;;;4842449;28;114578;-82
2023/12/26 11:40:49;;;;;;;3.08;1.50;;;10.30;59.50;;;;;;4848151;28;114544;-82
2023/12/26 11:43:16;;;;;;;3.00;1.40;;;10.30;59.50;;;;;;4840510;28;114348;-82
2023/12/26 11:50:18;;;;;;;3.08;1.38;;;10.30;59.30;;;;;;4813725;29;114510;-81
2023/12/26 11:52:45;;;;;;;3.78;1.40;;;10.20;59.80;;;;;;4798034;29;114669;-81
2023/12/26 11:55:16;;;;;;;2.55;1.42;;;10.20;59.80;;;;;;4812199;29;115419;-82
2023/12/26 11:57:43;;;;;;;2.97;1.33;;;10.20;59.60;;;;;;4812768;29;114623;-81
2023/12/26 12:00:11;;;;;;;4.18;1.73;;;10.10;59.60;;;;;;4797989;29;114437;-81
2023/12/26 12:02:41;;;;;;;4.45;1.85;;;10.10;59.60;;;;;;4813455;29;114648;-82
2023/12/26 12:05:08;;;;;;;4.13;1.90;;;10.10;59.60;;;;;;4796866;29;115250;-80
2023/12/26 12:07:35;;;;;;;3.40;1.38;;;10.10;59.60;;;;;;4812716;29;114765;-80
2023/12/26 12:10:11;;;;;;;3.58;1.30;;;10.10;59.60;;;;;;4813757;29;114362;-82
2023/12/26 12:12:42;;;;;;;2.90;1.40;;;10.10;59.50;;;;;;4813951;29;114484;-81
2023/12/26 12:15:10;;;;;;;1.85;1.13;;;10.10;59.60;;;;;;4812710;29;115078;-82
2023/12/26 12:30:41;;;;;;;2.40;1.20;;;9.90;59.90;;;;;;4855606;29;114682;-81
2023/12/26 12:33:19;;;;;;;4.35;1.50;;;9.90;60.10;;;;;;4835438;29;118919;-81
2023/12/26 12:35:49;;;;;;;2.78;1.48;;;9.90;60.10;;;;;;4835339;29;115272;-81
2023/12/26 12:38:22;;;;;;;4.25;1.60;;;9.90;60.10;;;;;;4835436;29;114588;-82
2023/12/26 12:40:50;;;;;;;2.25;1.33;;;9.90;59.90;;;;;;4805551;29;114561;-81
2023/12/26 12:43:17;;;;;;;2.70;1.30;;;9.80;60.00;;;;;;4834918;29;115578;-82
2023/12/26 12:45:47;;;;;;;4.38;1.80;;;9.90;60.10;;;;;;4834749;29;116480;-82
2023/12/26 12:48:14;;;;;;;3.65;1.90;;;9.90;60.10;;;;;;4835439;29;114261;-80
2023/12/26 12:50:42;;;;;;;3.40;1.63;;;10.00;60.00;;;;;;4835396;29;114489;-81
2023/12/26 12:53:09;;;;;;;3.70;1.90;;;9.90;60.00;;;;;;4850856;29;115159;-80
2023/12/26 12:55:40;;;;;;;3.60;1.90;;;9.90;59.90;;;;;;4851185;29;114697;-81
2023/12/26 12:58:08;;;;;;;4.30;1.70;;;9.90;59.90;;;;;;4819923;29;114492;-81
2023/12/26 13:00:36;;;;;;;3.30;1.67;;;9.90;59.90;;;;;;4835393;29;114391;-82
2023/12/26 13:03:04;;;;;;;3.47;1.50;;;9.90;59.90;;;;;;4833813;29;116288;-82
2023/12/26 13:05:48;;;;;;;3.15;1.50;;;9.90;59.90;;;;;;4836436;29;115473;-82
2023/12/26 13:08:15;;;;;;;2.40;1.48;;;9.90;60.10;;;;;;4819003;29;114720;-82
2023/12/26 13:10:42;;;;;;;3.40;1.70;;;9.90;60.20;;;;;;4835112;29;114442;-82
2023/12/26 13:13:10;;;;;;;2.70;1.50;;;9.90;60.00;;;;;;4818619;29;115256;-81
2023/12/26 13:15:38;;;;;;;5.50;3.38;;;9.90;60.10;;;;;;4850988;29;114814;-80
2023/12/26 13:18:09;;;;;;;2.80;1.30;;;9.90;60.10;;;;;;4835478;29;114470;-80
2023/12/26 13:20:39;;;;;;;4.60;1.40;;;9.90;60.10;;;;;;4851228;29;114328;-80
2023/12/26 13:23:06;;;;;;;3.00;1.42;;;9.90;60.00;;;;;;4850507;29;115586;-81
2023/12/26 13:25:38;;;;;;;4.03;1.95;;;9.90;59.90;;;;;;4850560;29;115872;-81
2023/12/26 13:28:08;;;;;;;3.40;1.45;;;9.90;59.90;;;;;;4850221;29;114428;-81
2023/12/26 13:30:35;;;;;;;4.60;1.88;;;9.90;60.00;;;;;;4819651;29;114795;-81
2023/12/26 13:33:03;;;;;;;3.65;2.13;;;9.90;60.10;;;;;;4833928;29;115415;-81
2023/12/26 13:35:30;;;;;;;3.95;1.90;;;9.90;60.10;;;;;;4852263;29;114645;-80
2023/12/26 13:37:58;;;;;;;3.78;1.65;;;9.90;60.10;;;;;;4857932;29;114555;-80
2023/12/26 13:40:26;;;;;;;4.85;2.30;;;9.80;60.00;;;;;;4859703;29;114764;-80
2023/12/26 13:42:54;;;;;;;3.72;1.83;;;9.90;60.10;;;;;;4835163;29;115732;-80
2023/12/26 13:45:21;;;;;;;3.00;1.55;;;9.90;60.00;;;;;;4834168;29;115327;-80
2023/12/26 13:47:48;;;;;;;4.30;2.25;;;9.80;60.10;;;;;;4835022;29;114447;-81
2023/12/26 13:50:16;;;;;;;4.60;2.05;;;9.80;60.00;;;;;;4851255;29;114447;-80
2023/12/26 13:52:45;;;;;;;4.13;1.50;;;9.80;60.20;;;;;;4833324;29;116594;-81
2023/12/26 13:55:15;;;;;;;3.38;1.70;;;9.80;60.30;;;;;;4849232;29;114885;-82
2023/12/26 13:57:42;;;;;;;4.07;2.03;;;9.70;60.20;;;;;;4851083;29;114609;-81
2023/12/26 14:00:12;;;;;;;4.20;1.92;;;9.70;60.20;;;;;;4849858;29;114298;-81
2023/12/26 14:02:42;;;;;;;3.63;1.90;;;9.70;60.30;;;;;;4849884;29;115750;-82
2023/12/26 14:06:58;;;;;;;5.47;1.70;;;9.70;60.30;;;;;;4848590;29;114776;-80
2023/12/26 14:09:29;;;;;;;3.90;1.70;;;9.70;60.20;;;;;;4869090;28;114339;-80
2023/12/26 14:23:31;;;;;;;4.38;2.00;;;9.60;60.70;;;;;;4813197;29;114584;-82
2023/12/26 14:25:59;;;;;;;4.60;2.28;;;9.40;61.00;;;;;;4799156;29;114473;-82
2023/12/26 14:28:26;;;;;;;4.07;2.60;;;9.50;61.00;;;;;;4815152;29;114735;-81
2023/12/26 14:30:54;;;;;;;5.18;2.60;;;9.50;61.00;;;;;;4813748;29;115362;-81
2023/12/26 14:33:21;;;;;;;3.65;2.00;;;9.50;61.00;;;;;;4783668;29;114910;-81
2023/12/26 14:35:49;;;;;;;4.90;2.20;;;9.50;60.90;;;;;;4815100;29;114273;-81
2023/12/26 14:38:17;;;;;;;3.72;1.95;;;9.50;60.90;;;;;;4814246;29;114516;-81
2023/12/26 14:40:45;;;;;;;4.60;1.80;;;9.50;60.90;;;;;;4813728;29;115252;-82
2023/12/26 14:43:16;;;;;;;4.22;1.92;;;9.50;60.90;;;;;;4813860;29;114778;-82
2023/12/26 14:45:43;;;;;;;5.57;2.15;;;9.50;60.90;;;;;;4798728;29;114633;-81
2023/12/26 14:48:11;;;;;;;4.63;2.03;;;9.50;60.90;;;;;;4783848;29;114389;-82
2023/12/26 14:50:38;;;;;;;4.38;2.25;;;9.50;60.90;;;;;;4797476;29;115438;-81
2023/12/26 14:53:05;;;;;;;4.65;2.55;;;9.50;61.00;;;;;;4815622;28;117428;-82
2023/12/26 14:55:33;;;;;;;4.80;1.90;;;9.50;61.00;;;;;;4855124;28;114528;-82
2023/12/26 14:58:00;;;;;;;4.70;2.58;;;9.50;61.00;;;;;;4855367;28;114802;-81
2023/12/26 15:00:27;;;;;;;4.95;2.25;;;9.50;61.00;;;;;;4839212;28;115142;-81
2023/12/26 15:02:57;;;;;;;5.97;2.00;;;9.50;61.00;;;;;;4871254;28;114628;-81
2023/12/26 15:05:25;;;;;;;4.00;2.00;;;9.50;61.00;;;;;;4855774;28;114436;-80
2023/12/26 15:08:03;;;;;;;6.15;2.33;;;9.40;61.10;;;;;;4857052;28;114340;-80
2023/12/26 15:10:31;;;;;;;4.95;2.45;;;9.50;61.20;;;;;;4871511;28;116162;-80
2023/12/26 15:13:00;;;;;;;4.03;2.20;;;9.50;61.20;;;;;;4871293;28;115153;-80
2023/12/26 15:15:28;;;;;;;3.97;2.40;;;9.40;61.20;;;;;;4871739;28;114266;-81
2023/12/26 15:17:56;;;;;;;6.68;2.55;;;9.40;61.20;;;;;;4855066;28;114429;-80
2023/12/26 15:20:24;;;;;;;6.63;2.30;;;9.30;61.30;;;;;;4863510;28;115129;-80
2023/12/26 15:22:51;;;;;;;6.05;2.22;;;9.40;61.20;;;;;;4854449;28;114629;-81
2023/12/26 15:25:19;;;;;;;5.35;2.10;;;9.30;61.20;;;;;;4855266;28;114498;-81
2023/12/26 15:27:48;;;;;;;4.18;2.08;;;9.30;61.30;;;;;;4854993;28;114718;-81
2023/12/26 15:30:17;;;;;;;5.10;2.33;;;9.30;61.30;;;;;;4839562;28;115183;-81
2023/12/26 15:32:51;;;;;;;4.45;2.35;;;9.30;61.40;;;;;;4875533;28;114745;-81
2023/12/26 15:35:19;;;;;;;4.27;2.20;;;9.30;61.40;;;;;;4854514;28;114416;-81
2023/12/26 15:37:46;;;;;;;5.63;2.00;;;9.20;61.50;;;;;;4858798;28;114614;-81
2023/12/26 15:40:14;;;;;;;4.38;2.22;;;9.20;61.60;;;;;;4871732;28;115567;-81
2023/12/26 15:42:42;;;;;;;4.10;2.20;;;9.20;61.60;;;;;;4871196;28;115066;-81
2023/12/26 15:45:10;;;;;;;6.82;2.38;;;9.20;61.70;;;;;;4855790;28;114389;-81
2023/12/26 15:47:37;;;;;;;5.30;2.20;;;9.20;61.80;;;;;;4872157;28;114299;-80
2023/12/26 15:50:06;;;;;;;5.57;2.33;;;9.20;61.80;;;;;;4838955;28;115209;-81
2023/12/26 15:52:33;;;;;;;7.57;3.25;;;9.20;61.90;;;;;;4853920;28;114690;-82
2023/12/26 15:55:01;;;;;;;5.10;2.42;;;9.20;61.90;;;;;;4854711;28;114980;-81
2023/12/26 15:57:29;;;;;;;5.80;2.28;;;9.20;62.00;;;;;;4840202;28;114739;-81
2023/12/26 15:59:57;;;;;;;3.95;2.15;;;9.20;62.00;;;;;;4854250;28;116017;-81
2023/12/26 16:02:25;;;;;;;4.90;2.45;;;9.20;62.10;;;;;;4879835;28;114668;-81
2023/12/26 16:04:55;;;;;;;3.95;2.33;;;9.20;62.20;;;;;;4874731;28;114301;-81
2023/12/26 16:07:27;;;;;;;4.10;2.13;;;9.20;62.20;;;;;;4870966;28;115266;-81
2023/12/26 16:09:54;;;;;;;7.32;2.67;;;9.10;62.40;;;;;;4838639;28;115150;-81
2023/12/26 16:12:22;;;;;;;4.22;2.13;;;9.10;62.40;;;;;;4870654;28;114664;-81
2023/12/26 16:14:49;;;;;;;4.32;2.17;;;9.10;62.50;;;;;;4854828;28;114475;-81
2023/12/26 16:17:16;;;;;;;5.40;2.40;;;9.10;62.60;;;;;;4871577;28;114152;-81